createdAt,value
2017-12-27T00:00:32.122Z,6.68
2017-12-27T00:03:17.019Z,7.87
2017-12-27T00:05:54.689Z,8.45
2017-12-27T00:08:33.995Z,10.55
2017-12-27T00:11:13.369Z,10.88
2017-12-27T00:13:55.182Z,11.00
2017-12-27T00:16:36.159Z,8.25
2017-12-27T00:19:25.835Z,8.73
2017-12-27T00:22:04.714Z,5.62
2017-12-27T00:24:45.241Z,6.20
2017-12-27T00:27:24.049Z,8.68
2017-12-27T00:30:03.943Z,8.43
2017-12-27T00:32:37.695Z,9.10
2017-12-27T00:35:12.423Z,11.70
2017-12-27T00:37:47.405Z,9.27
2017-12-27T00:40:20.248Z,12.68
2017-12-27T00:42:58.015Z,10.80
2017-12-27T00:45:34.057Z,13.40
2017-12-27T00:48:08.145Z,12.55
2017-12-27T00:50:41.796Z,8.50
2017-12-27T00:53:17.908Z,8.27
2017-12-27T00:55:54.624Z,8.55
2017-12-27T00:58:33.607Z,9.02
2017-12-27T01:03:44.618Z,8.80
2017-12-27T01:06:19.031Z,8.43
2017-12-27T01:08:55.080Z,9.05
2017-12-27T01:11:30.269Z,8.52
2017-12-27T01:14:04.677Z,15.75
2017-12-27T01:19:20.797Z,16.35
2017-12-27T01:21:55.835Z,8.00
2017-12-27T01:24:31.246Z,7.80
2017-12-27T01:27:08.184Z,10.05
2017-12-27T01:29:42.703Z,11.73
2017-12-27T01:32:16.046Z,11.48
2017-12-27T01:34:55.379Z,10.73
2017-12-27T01:37:35.478Z,9.93
2017-12-27T01:40:12.041Z,11.68
2017-12-27T01:42:45.694Z,12.00
2017-12-27T01:45:20.633Z,11.20
2017-12-27T01:47:54.415Z,11.23
2017-12-27T01:50:26.765Z,10.57
2017-12-27T01:53:03.869Z,9.75
2017-12-27T01:55:45.407Z,13.85
2017-12-27T01:58:17.408Z,12.20
2017-12-27T02:00:50.644Z,16.27
2017-12-27T02:03:25.004Z,14.02
2017-12-27T02:05:58.857Z,13.55
2017-12-27T02:08:35.367Z,10.68
2017-12-27T02:11:11.232Z,12.15
2017-12-27T02:16:24.866Z,14.15
2017-12-27T02:19:01.201Z,11.82
2017-12-27T02:21:36.153Z,10.60
2017-12-27T02:24:14.295Z,10.32
2017-12-27T02:29:48.598Z,16.00
2017-12-27T02:32:26.040Z,12.43
2017-12-27T02:35:00.766Z,12.63
2017-12-27T02:37:39.222Z,9.00
2017-12-27T02:40:29.300Z,13.80
2017-12-27T02:43:05.949Z,11.48
2017-12-27T02:45:53.596Z,10.52
2017-12-27T02:48:31.585Z,21.45
2017-12-27T02:51:08.223Z,17.95
2017-12-27T02:53:46.231Z,11.63
2017-12-27T02:56:20.988Z,15.65
2017-12-27T03:01:33.583Z,9.07
2017-12-27T03:04:08.070Z,9.90
2017-12-27T03:06:42.609Z,10.90
2017-12-27T03:09:18.188Z,10.38
2017-12-27T03:11:52.536Z,10.57
2017-12-27T03:14:27.063Z,11.10
2017-12-27T03:17:06.271Z,11.30
2017-12-27T03:19:43.421Z,11.50
2017-12-27T03:22:18.461Z,9.30
2017-12-27T03:24:59.989Z,14.25
2017-12-27T03:27:34.721Z,12.48
2017-12-27T03:30:11.732Z,12.15
2017-12-27T03:32:47.377Z,28.35
2017-12-27T03:35:23.653Z,13.05
2017-12-27T03:37:57.291Z,13.50
2017-12-27T03:40:29.584Z,13.77
2017-12-27T03:43:06.051Z,12.55
2017-12-27T03:45:42.290Z,13.18
2017-12-27T03:48:16.907Z,12.77
2017-12-27T03:50:52.649Z,13.65
2017-12-27T03:53:27.008Z,14.25
2017-12-27T03:56:00.941Z,18.05
2017-12-27T03:58:34.432Z,19.58
2017-12-27T04:01:08.675Z,18.25
2017-12-27T04:03:42.884Z,14.38
2017-12-27T04:06:16.703Z,14.57
2017-12-27T04:11:45.422Z,12.60
2017-12-27T04:14:24.889Z,15.68
2017-12-27T04:16:59.907Z,12.23
2017-12-27T04:19:38.704Z,17.15
2017-12-27T04:22:12.715Z,14.23
2017-12-27T04:24:51.071Z,11.98
2017-12-27T04:27:26.731Z,11.38
2017-12-27T04:30:07.059Z,11.02
2017-12-27T04:32:43.878Z,16.02
2017-12-27T04:35:19.976Z,13.85
2017-12-27T04:37:55.482Z,12.32
2017-12-27T04:40:30.456Z,14.90
2017-12-27T04:43:05.244Z,11.85
2017-12-27T04:45:39.773Z,13.10
2017-12-27T04:48:15.392Z,13.02
2017-12-27T04:50:50.595Z,13.80
2017-12-27T04:53:24.921Z,13.98
2017-12-27T04:55:59.015Z,17.27
2017-12-27T04:58:34.271Z,13.88
2017-12-27T05:01:09.634Z,13.07
2017-12-27T05:03:44.011Z,13.93
2017-12-27T05:06:19.470Z,11.25
2017-12-27T05:08:52.806Z,11.80
2017-12-27T05:14:08.741Z,10.35
2017-12-27T05:19:34.983Z,12.48
2017-12-27T05:22:11.022Z,11.90
2017-12-27T05:24:45.876Z,13.05
2017-12-27T05:27:20.736Z,12.00
2017-12-27T05:29:56.224Z,12.57
2017-12-27T05:32:33.628Z,13.20
2017-12-27T05:35:11.148Z,15.50
2017-12-27T05:37:57.403Z,14.63
2017-12-27T05:40:37.888Z,12.98
2017-12-27T05:43:27.408Z,14.10
2017-12-27T05:49:01.658Z,13.18
2017-12-27T05:51:38.178Z,13.38
2017-12-27T05:54:12.569Z,12.65
2017-12-27T05:56:46.029Z,12.65
2017-12-27T05:59:25.222Z,14.90
2017-12-27T06:02:07.993Z,12.98
2017-12-27T06:04:42.207Z,13.52
2017-12-27T06:10:27.697Z,12.35
2017-12-27T06:13:06.874Z,13.35
2017-12-27T06:15:53.321Z,15.52
2017-12-27T06:18:33.469Z,13.65
2017-12-27T06:21:16.190Z,15.05
2017-12-27T06:23:50.187Z,14.25
2017-12-27T06:26:33.292Z,15.00
2017-12-27T06:29:09.482Z,18.67
2017-12-27T06:31:43.671Z,15.52
2017-12-27T06:34:23.147Z,18.42
2017-12-27T06:36:59.467Z,22.20
2017-12-27T06:39:31.996Z,21.33
2017-12-27T06:42:05.089Z,16.02
2017-12-27T06:44:40.391Z,15.55
2017-12-27T07:53:45.320Z,16.83
2017-12-27T09:54:35.058Z,26.10
2017-12-27T09:57:09.450Z,27.13
2017-12-27T09:59:44.190Z,32.75
2017-12-27T10:02:21.142Z,26.12
2017-12-27T10:04:55.931Z,24.75
2017-12-27T10:07:30.008Z,33.92
2017-12-27T10:10:05.880Z,24.20
2017-12-27T10:12:40.163Z,22.45
2017-12-27T10:15:16.207Z,24.73
2017-12-27T10:17:50.125Z,23.92
2017-12-27T10:20:30.152Z,27.62
2017-12-27T10:23:04.564Z,27.37
2017-12-27T10:25:40.716Z,22.20
2017-12-27T10:28:17.130Z,23.77
2017-12-27T10:30:52.295Z,22.87
2017-12-27T10:36:19.493Z,19.25
2017-12-27T10:38:55.669Z,18.65
2017-12-27T10:41:29.577Z,22.67
2017-12-27T10:44:07.732Z,17.95
2017-12-27T10:46:45.938Z,19.62
2017-12-27T10:49:22.666Z,18.12
2017-12-27T10:51:55.309Z,17.67
2017-12-27T10:54:40.377Z,18.05
2017-12-27T10:57:15.004Z,18.37
2017-12-27T10:59:51.007Z,16.75
2017-12-27T11:02:26.920Z,20.00
2017-12-27T11:05:08.535Z,20.42
2017-12-27T11:07:47.323Z,16.45
2017-12-27T11:10:23.209Z,15.38
2017-12-27T11:12:58.025Z,17.50
2017-12-27T11:15:35.864Z,15.43
2017-12-27T11:18:14.578Z,17.98
2017-12-27T11:20:51.461Z,16.00
2017-12-27T11:23:29.327Z,15.45
2017-12-27T11:26:04.143Z,17.65
2017-12-27T11:28:39.261Z,18.52
2017-12-27T11:31:23.494Z,17.42
2017-12-27T11:34:05.754Z,16.95
2017-12-27T11:36:39.868Z,21.40
2017-12-27T11:39:20.806Z,19.20
2017-12-27T11:42:00.860Z,16.17
2017-12-27T11:44:35.689Z,19.33
2017-12-27T11:47:10.612Z,18.55
2017-12-27T11:49:47.106Z,22.85
2017-12-27T11:52:21.938Z,23.45
2017-12-27T11:55:08.579Z,17.12
2017-12-27T11:57:42.962Z,25.45
2017-12-27T12:00:17.887Z,24.58
2017-12-27T12:02:51.921Z,22.33
2017-12-27T12:05:26.424Z,22.27
2017-12-27T12:08:00.580Z,22.65
2017-12-27T12:10:35.170Z,18.02
2017-12-27T12:13:09.057Z,26.17
2017-12-27T12:15:44.737Z,19.67
2017-12-27T12:18:23.780Z,23.02
2017-12-27T12:20:57.538Z,25.80
2017-12-27T12:23:32.476Z,22.85
2017-12-27T12:26:07.361Z,24.52
2017-12-27T12:28:42.283Z,19.02
2017-12-27T12:31:17.407Z,21.48
2017-12-27T12:33:52.405Z,20.08
2017-12-27T12:36:32.019Z,19.20
2017-12-27T12:39:06.595Z,18.33
2017-12-27T12:41:51.242Z,16.52
2017-12-27T12:44:26.204Z,19.23
2017-12-27T12:47:01.284Z,18.67
2017-12-27T12:49:35.798Z,18.15
2017-12-27T12:52:10.818Z,15.82
2017-12-27T12:54:47.872Z,16.17
2017-12-27T12:57:23.500Z,16.80
2017-12-27T12:59:57.577Z,18.52
2017-12-27T13:02:40.923Z,20.27
2017-12-27T13:05:15.191Z,14.57
2017-12-27T13:07:49.215Z,15.15
2017-12-27T13:10:27.421Z,16.08
2017-12-27T13:13:02.377Z,15.23
2017-12-27T13:15:42.918Z,15.40
2017-12-27T13:18:17.824Z,16.05
2017-12-27T13:20:52.057Z,15.00
2017-12-27T13:23:26.680Z,13.23
2017-12-27T13:26:06.246Z,19.30
2017-12-27T13:28:42.000Z,16.48
2017-12-27T13:31:17.644Z,14.57
2017-12-27T13:33:52.572Z,15.52
2017-12-27T13:36:26.638Z,11.63
2017-12-27T13:39:03.347Z,13.15
2017-12-27T13:41:37.643Z,14.25
2017-12-27T13:44:12.573Z,14.30
2017-12-27T13:46:47.272Z,15.70
2017-12-27T13:49:21.742Z,21.15
2017-12-27T13:51:57.193Z,18.30
2017-12-27T13:54:35.679Z,21.90
2017-12-27T13:57:10.299Z,15.73
2017-12-27T13:59:44.804Z,15.60
2017-12-27T14:02:21.458Z,12.73
2017-12-27T14:04:59.297Z,14.48
2017-12-27T14:07:35.365Z,13.85
2017-12-27T14:10:11.395Z,11.90
2017-12-27T14:12:46.538Z,14.45
2017-12-27T14:15:24.068Z,13.55
2017-12-27T14:17:58.405Z,13.32
2017-12-27T14:20:33.504Z,14.95
2017-12-27T14:23:17.060Z,15.65
2017-12-27T14:25:53.923Z,16.58
2017-12-27T14:28:28.663Z,12.82
2017-12-27T14:31:03.526Z,14.38
2017-12-27T14:33:38.619Z,14.48
2017-12-27T14:36:13.126Z,13.93
2017-12-27T14:38:47.414Z,11.12
2017-12-27T14:44:04.079Z,10.65
2017-12-27T14:46:47.404Z,14.70
2017-12-27T14:49:20.940Z,12.98
2017-12-27T14:51:56.039Z,15.23
2017-12-27T14:54:30.616Z,15.25
2017-12-27T14:57:08.077Z,12.20
2017-12-27T14:59:42.567Z,12.88
2017-12-27T15:02:20.781Z,13.52
2017-12-27T15:04:58.224Z,11.43
2017-12-27T15:07:32.145Z,12.70
2017-12-27T15:12:46.273Z,12.70
2017-12-27T15:15:24.697Z,13.57
2017-12-27T15:17:59.707Z,14.02
2017-12-27T15:20:36.989Z,13.07
2017-12-27T15:23:11.525Z,13.00
2017-12-27T15:25:46.548Z,11.73
2017-12-27T15:28:21.751Z,15.43
2017-12-27T15:30:58.060Z,13.05
2017-12-27T15:33:32.271Z,16.73
2017-12-27T15:36:15.366Z,13.13
2017-12-27T15:38:52.204Z,13.55
2017-12-27T15:41:32.549Z,14.82
2017-12-27T15:44:08.506Z,15.82
2017-12-27T15:46:43.984Z,15.80
2017-12-27T15:49:18.375Z,15.43
2017-12-27T15:51:53.679Z,13.20
2017-12-27T15:54:30.845Z,14.02
2017-12-27T15:57:04.234Z,16.70
2017-12-27T15:59:38.807Z,11.38
2017-12-27T16:02:13.773Z,12.23
2017-12-27T16:04:48.307Z,12.85
2017-12-27T16:07:22.883Z,12.80
2017-12-27T16:09:59.503Z,12.82
2017-12-27T16:12:34.455Z,16.50
2017-12-27T16:15:09.509Z,13.18
2017-12-27T16:17:45.458Z,14.65
2017-12-27T16:20:18.707Z,14.80
2017-12-27T16:23:01.294Z,14.63
2017-12-27T16:25:35.376Z,15.15
2017-12-27T16:28:10.318Z,12.85
2017-12-27T16:30:44.706Z,14.68
2017-12-27T16:33:20.287Z,14.10
2017-12-27T16:35:54.085Z,14.50
2017-12-27T16:38:30.037Z,14.98
2017-12-27T16:41:04.962Z,16.35
2017-12-27T16:43:38.597Z,15.88
2017-12-27T16:46:12.893Z,16.00
2017-12-27T16:48:48.409Z,15.00
2017-12-27T16:51:23.111Z,15.55
2017-12-27T16:54:00.502Z,15.10
2017-12-27T16:56:45.719Z,17.02
2017-12-27T17:02:07.162Z,18.30
2017-12-27T17:04:44.366Z,16.25
2017-12-27T17:07:20.274Z,22.23
2017-12-27T17:09:56.267Z,17.65
2017-12-27T17:12:28.465Z,18.23
2017-12-27T17:15:04.250Z,20.23
2017-12-27T17:17:37.494Z,21.90
2017-12-27T17:20:11.717Z,18.00
2017-12-27T17:22:49.182Z,22.40
2017-12-27T17:25:25.037Z,25.42
2017-12-27T17:28:00.235Z,20.00
2017-12-27T17:30:36.261Z,22.02
2017-12-27T17:35:53.102Z,18.55
2017-12-27T17:38:35.666Z,24.33
2017-12-27T17:41:09.298Z,25.65
2017-12-27T17:43:44.726Z,21.98
2017-12-27T17:46:19.136Z,23.23
2017-12-27T17:48:56.709Z,22.27
2017-12-27T17:51:30.812Z,22.05
2017-12-27T17:54:06.500Z,24.70
2017-12-27T17:56:42.389Z,26.10
2017-12-27T17:59:17.062Z,27.30
2017-12-27T18:01:52.313Z,20.83
2017-12-27T18:04:34.152Z,24.25
2017-12-27T18:07:10.859Z,26.95
2017-12-27T18:09:46.397Z,27.65
2017-12-27T18:12:25.994Z,27.45
2017-12-27T18:17:52.206Z,26.37
2017-12-27T18:20:25.523Z,28.75
2017-12-27T18:23:00.623Z,23.08
2017-12-27T18:25:34.224Z,26.90
2017-12-27T18:28:13.356Z,26.58
2017-12-27T18:30:49.667Z,24.52
2017-12-27T18:33:26.557Z,23.15
2017-12-27T18:36:02.609Z,23.98
2017-12-27T18:38:39.156Z,23.45
2017-12-27T18:41:12.872Z,23.98
2017-12-27T18:43:50.520Z,21.83
2017-12-27T18:46:27.543Z,23.65
2017-12-27T18:49:08.262Z,18.87
2017-12-27T18:51:43.004Z,21.17
2017-12-27T18:54:25.196Z,22.95
2017-12-27T18:57:00.096Z,19.92
2017-12-27T18:59:34.016Z,21.35
2017-12-27T19:05:00.014Z,23.30
2017-12-27T19:07:34.947Z,21.15
2017-12-27T19:10:10.412Z,28.77
2017-12-27T19:12:46.337Z,19.00
2017-12-27T19:15:21.094Z,25.37
2017-12-27T19:17:57.212Z,21.12
2017-12-27T19:20:39.352Z,22.92
2017-12-27T19:23:14.266Z,24.45
2017-12-27T19:25:49.100Z,24.80
2017-12-27T19:28:23.570Z,21.33
2017-12-27T19:30:59.683Z,19.37
2017-12-27T19:33:34.065Z,22.30
2017-12-27T19:36:10.462Z,18.48
2017-12-27T19:38:46.438Z,21.17
2017-12-27T19:41:21.745Z,19.92
2017-12-27T19:43:58.992Z,22.15
2017-12-27T19:46:33.914Z,17.37
2017-12-27T19:49:08.502Z,21.27
2017-12-27T19:51:43.767Z,19.35
2017-12-27T19:54:18.432Z,19.85
2017-12-27T19:56:51.959Z,19.80
2017-12-27T19:59:27.773Z,18.30
2017-12-27T20:02:02.122Z,18.83
2017-12-27T20:04:36.100Z,19.35
2017-12-27T20:07:11.397Z,18.77
2017-12-27T20:09:47.051Z,17.40
2017-12-27T20:12:24.313Z,19.37
2017-12-27T20:14:56.447Z,21.55
2017-12-27T20:17:31.075Z,19.10
2017-12-27T20:20:03.260Z,16.62
2017-12-27T20:25:12.381Z,19.33
2017-12-27T20:27:48.368Z,20.95
2017-12-27T20:30:23.135Z,20.40
2017-12-27T20:32:56.936Z,19.90
2017-12-27T20:35:33.068Z,18.02
2017-12-27T20:38:05.985Z,16.15
2017-12-27T20:40:38.969Z,20.42
2017-12-27T20:43:11.503Z,15.70
2017-12-27T20:45:47.377Z,17.45
2017-12-27T20:48:22.726Z,24.17
2017-12-27T20:50:55.618Z,16.92
2017-12-27T20:53:31.576Z,18.52
2017-12-27T20:56:06.914Z,22.90
2017-12-27T20:58:42.879Z,20.12
2017-12-27T21:01:19.651Z,18.90
2017-12-27T21:04:01.280Z,20.65
2017-12-27T21:06:37.531Z,24.77
2017-12-27T21:09:14.816Z,21.45
2017-12-27T21:11:49.592Z,22.25
2017-12-27T21:17:01.698Z,17.70
2017-12-27T21:19:36.685Z,14.68
2017-12-27T21:22:12.547Z,13.02
2017-12-27T21:24:48.688Z,12.23
2017-12-27T21:27:23.711Z,14.15
2017-12-27T21:32:44.823Z,13.07
2017-12-27T21:35:19.060Z,11.38
2017-12-27T21:37:55.080Z,15.93
2017-12-27T21:40:31.508Z,13.48
2017-12-27T21:43:04.487Z,14.75
2017-12-27T21:45:38.306Z,16.48
2017-12-27T21:48:18.230Z,20.95
2017-12-27T21:50:55.182Z,19.52
2017-12-27T21:53:31.386Z,16.15
2017-12-27T21:56:06.634Z,18.40
2017-12-27T21:58:48.185Z,13.13
2017-12-27T22:01:30.137Z,27.20
2017-12-27T22:04:06.016Z,15.10
2017-12-27T22:06:40.665Z,18.20
2017-12-27T22:09:18.647Z,19.30
2017-12-27T22:11:55.936Z,22.02
2017-12-27T22:14:32.035Z,19.08
2017-12-27T22:17:05.346Z,23.38
2017-12-27T22:19:40.606Z,24.83
2017-12-27T22:22:16.662Z,23.55
2017-12-27T22:24:52.819Z,23.12
2017-12-27T22:27:26.085Z,18.23
2017-12-27T22:30:01.765Z,21.23
2017-12-27T22:32:40.017Z,44.38
2017-12-27T22:35:19.309Z,48.28
2017-12-27T22:37:54.260Z,22.00
2017-12-27T22:40:30.851Z,19.33
2017-12-27T22:43:08.125Z,12.43
2017-12-27T22:45:42.945Z,17.05
2017-12-27T22:48:26.524Z,18.30
2017-12-27T22:53:47.130Z,17.55
2017-12-27T22:56:26.069Z,31.15
2017-12-27T23:01:44.991Z,23.38
2017-12-27T23:07:07.114Z,24.25
2017-12-27T23:09:42.700Z,31.62
2017-12-27T23:12:18.586Z,47.55
2017-12-27T23:14:55.952Z,60.90
2017-12-27T23:17:30.641Z,19.45
2017-12-27T23:20:10.821Z,21.20
2017-12-27T23:22:46.647Z,16.98
2017-12-27T23:25:23.582Z,18.27
2017-12-27T23:27:59.469Z,16.75
2017-12-27T23:30:36.022Z,17.27
2017-12-27T23:33:13.331Z,20.73
2017-12-27T23:35:50.971Z,15.50
2017-12-27T23:38:25.772Z,16.48
2017-12-27T23:41:04.234Z,16.92
2017-12-27T23:43:36.763Z,27.87
2017-12-27T23:46:11.030Z,20.20
2017-12-27T23:48:46.061Z,22.08
2017-12-27T23:51:22.085Z,17.15
2017-12-27T23:53:55.972Z,21.52
2017-12-27T23:56:38.240Z,26.00
2017-12-27T23:59:12.078Z,20.23
